Tadoussac, Canada
Current Conditions -  °F | °C
As of 1:00 PM on Friday 19 Dec 2014 (Local Time) from CYBG Reporting Station
Clear Clear  
Wind Chill:   Ceiling: Unl
Heat Index: 21°   Visibility: 25mi
Dew Point:   Wind: 13mph
Humidity: 54%   Direction: 270°W
Pressure: 30.04"   Gusts: NA
Location:  48.15°N, 69.72°W
Report Text: CYBG 191800Z 27011KT 25SM SKC M06/M14 A3004 RMK SLP185
Loading
Personal Weather Stations






























Interactive Weather Map New forecast layout! Learn more

10-Day Weather Forecast

Advertisements
Track Severe Weather on mobile